createdAt,value
2019-01-28T00:00:13.141Z,982.34
2019-01-28T00:01:22.844Z,982.34
2019-01-28T00:02:32.846Z,982.37
2019-01-28T00:03:42.779Z,982.37
2019-01-28T00:04:52.726Z,982.38
2019-01-28T00:06:02.662Z,982.43
2019-01-28T00:07:12.626Z,982.4
2019-01-28T00:08:22.322Z,982.41
2019-01-28T00:09:32.278Z,982.43
2019-01-28T00:10:41.701Z,982.43
2019-01-28T00:11:51.138Z,982.51
2019-01-28T00:13:00.601Z,982.46
2019-01-28T00:14:10.528Z,982.46
2019-01-28T00:15:20.246Z,982.51
2019-01-28T00:16:30.194Z,982.51
2019-01-28T00:17:40.132Z,982.47
2019-01-28T00:18:50.066Z,982.51
2019-01-28T00:19:59.762Z,982.49
2019-01-28T00:21:09.693Z,982.54
2019-01-28T00:22:19.127Z,982.58
2019-01-28T00:23:28.558Z,982.52
2019-01-28T00:24:38.270Z,982.52
2019-01-28T00:25:47.446Z,982.54
2019-01-28T00:26:57.135Z,982.51
2019-01-28T00:28:06.845Z,982.49
2019-01-28T00:29:16.782Z,982.55
2019-01-28T00:30:26.712Z,982.53
2019-01-28T00:31:36.162Z,982.54
2019-01-28T00:32:45.837Z,982.56
2019-01-28T00:33:55.774Z,982.5
2019-01-28T00:35:05.709Z,982.5
2019-01-28T00:36:15.658Z,982.56
2019-01-28T00:37:25.336Z,982.55
2019-01-28T00:38:35.290Z,982.54
2019-01-28T00:39:44.972Z,982.58
2019-01-28T00:40:54.406Z,982.58
2019-01-28T00:42:04.090Z,982.61
2019-01-28T00:43:14.027Z,982.56
2019-01-28T00:44:23.965Z,982.59
2019-01-28T00:45:33.900Z,982.6
2019-01-28T00:46:43.335Z,982.54
2019-01-28T00:47:52.781Z,982.57
2019-01-28T00:49:02.698Z,982.59
2019-01-28T00:50:12.380Z,982.6
2019-01-28T00:51:22.070Z,982.55
2019-01-28T00:52:31.750Z,982.62
2019-01-28T00:53:41.696Z,982.62
2019-01-28T00:54:51.135Z,982.63
2019-01-28T00:56:00.812Z,982.61
2019-01-28T00:57:10.500Z,982.61
2019-01-28T00:58:20.442Z,982.62
2019-01-28T00:59:29.874Z,982.61
2019-01-28T01:00:39.670Z,982.64
2019-01-28T01:01:49.582Z,982.66
2019-01-28T01:02:59.288Z,982.64
2019-01-28T01:04:08.983Z,982.65
2019-01-28T01:05:18.947Z,982.67
2019-01-28T01:06:28.948Z,982.66
2019-01-28T01:07:38.650Z,982.72
2019-01-28T01:08:48.608Z,982.65
2019-01-28T01:09:58.296Z,982.69
2019-01-28T01:11:08.241Z,982.68
2019-01-28T01:12:17.693Z,982.72
2019-01-28T01:13:27.641Z,982.74
2019-01-28T01:14:37.333Z,982.73
2019-01-28T01:15:47.076Z,982.74
2019-01-28T01:16:57.028Z,982.73
2019-01-28T01:18:06.964Z,982.73
2019-01-28T01:19:16.408Z,982.75
2019-01-28T01:20:26.346Z,982.77
2019-01-28T01:21:36.291Z,982.78
2019-01-28T01:22:46.229Z,982.78
2019-01-28T01:23:56.157Z,982.79
2019-01-28T01:25:06.115Z,982.82
2019-01-28T01:26:16.054Z,982.85
2019-01-28T01:27:25.735Z,982.86
2019-01-28T01:28:35.687Z,982.79
2019-01-28T01:29:45.635Z,982.89
2019-01-28T01:30:55.555Z,982.89
2019-01-28T01:32:04.748Z,982.88
2019-01-28T01:33:14.460Z,982.87
2019-01-28T01:34:24.405Z,982.89
2019-01-28T01:35:34.082Z,982.88
2019-01-28T01:36:44.018Z,982.92
2019-01-28T01:37:53.695Z,982.93
2019-01-28T01:39:03.393Z,982.93
2019-01-28T01:40:13.345Z,982.9
2019-01-28T01:41:23.043Z,982.94
2019-01-28T01:42:32.981Z,982.95
2019-01-28T01:43:42.413Z,982.92
2019-01-28T01:44:52.103Z,982.9
2019-01-28T01:46:01.781Z,982.98
2019-01-28T01:47:11.720Z,982.96
2019-01-28T01:48:21.650Z,983.01
2019-01-28T01:49:31.091Z,983.03
2019-01-28T01:50:40.527Z,983.04
2019-01-28T01:51:50.460Z,983.01
2019-01-28T01:53:00.145Z,983.01
2019-01-28T01:54:09.830Z,983.04
2019-01-28T01:55:19.767Z,983.02
2019-01-28T01:56:29.460Z,983.02
2019-01-28T01:57:39.135Z,983.11
2019-01-28T01:58:48.821Z,983.12
2019-01-28T01:59:58.505Z,983.1
2019-01-28T02:01:08.447Z,983.15
2019-01-28T02:02:18.395Z,983.1
2019-01-28T02:03:36.220Z,983.13
2019-01-28T02:04:45.668Z,983.14
2019-01-28T02:05:55.113Z,983.12
2019-01-28T02:07:05.047Z,983.16
2019-01-28T02:08:15.000Z,983.16
2019-01-28T02:09:24.426Z,983.19
2019-01-28T02:10:34.126Z,983.22
2019-01-28T02:11:43.821Z,983.22
2019-01-28T02:12:53.517Z,983.16
2019-01-28T02:14:03.454Z,983.17
2019-01-28T02:15:13.389Z,983.16
2019-01-28T02:16:23.077Z,983.18
2019-01-28T02:17:33.017Z,983.22
2019-01-28T02:18:42.971Z,983.22
2019-01-28T02:19:52.652Z,983.2
2019-01-28T02:21:02.347Z,983.22
2019-01-28T02:22:12.272Z,983.24
2019-01-28T02:23:22.226Z,983.25
2019-01-28T02:24:32.191Z,983.26
2019-01-28T02:25:41.929Z,983.26
2019-01-28T02:26:51.877Z,983.3
2019-01-28T02:28:01.822Z,983.26
2019-01-28T02:29:11.746Z,983.24
2019-01-28T02:30:21.695Z,983.29
2019-01-28T02:31:31.629Z,983.24
2019-01-28T02:32:41.355Z,983.28
2019-01-28T02:33:51.317Z,983.28
2019-01-28T02:35:01.036Z,983.35
2019-01-28T02:36:10.977Z,983.3
2019-01-28T02:37:20.685Z,983.29
2019-01-28T02:38:30.625Z,983.42
2019-01-28T02:39:40.563Z,983.32
2019-01-28T02:40:50.522Z,983.31
2019-01-28T02:42:00.467Z,983.39
2019-01-28T02:43:10.153Z,983.42
2019-01-28T02:44:20.103Z,983.47
2019-01-28T02:45:29.779Z,983.54
2019-01-28T02:46:39.727Z,983.47
2019-01-28T02:47:49.657Z,983.46
2019-01-28T02:48:59.795Z,983.49
2019-01-28T02:50:09.490Z,983.44
2019-01-28T02:51:19.433Z,983.49
2019-01-28T02:52:29.375Z,983.53
2019-01-28T02:53:39.322Z,983.55
2019-01-28T02:54:49.266Z,983.54
2019-01-28T02:55:59.220Z,983.5
2019-01-28T02:57:09.163Z,983.5
2019-01-28T02:58:19.099Z,983.49
2019-01-28T02:59:28.546Z,983.55
2019-01-28T03:00:38.241Z,983.5
2019-01-28T03:01:47.926Z,983.6
2019-01-28T03:02:59.669Z,983.56
2019-01-28T03:04:09.362Z,983.62
2019-01-28T03:05:19.071Z,983.62
2019-01-28T03:06:29.024Z,983.7
2019-01-28T03:07:38.711Z,983.61
2019-01-28T03:08:48.405Z,983.69
2019-01-28T03:09:58.342Z,983.7
2019-01-28T03:11:08.043Z,983.72
2019-01-28T03:12:18.154Z,983.77
2019-01-28T03:13:28.094Z,983.76
2019-01-28T03:14:37.799Z,983.81
2019-01-28T03:15:47.740Z,983.75
2019-01-28T03:16:57.439Z,983.76
2019-01-28T03:18:07.141Z,983.81
2019-01-28T03:19:16.597Z,983.83
2019-01-28T03:20:26.540Z,983.76
2019-01-28T03:21:36.482Z,983.83
2019-01-28T03:22:46.187Z,983.92
2019-01-28T03:23:55.886Z,983.9
2019-01-28T03:25:05.837Z,983.98
2019-01-28T03:26:15.770Z,984.01
2019-01-28T03:27:25.206Z,983.98
2019-01-28T03:28:35.145Z,984.1
2019-01-28T03:29:45.079Z,984.07
2019-01-28T03:30:55.033Z,984.06
2019-01-28T03:32:04.777Z,984.15
2019-01-28T03:33:14.602Z,984.12
2019-01-28T03:34:24.577Z,984.22
2019-01-28T03:35:34.021Z,984.15
2019-01-28T03:36:43.951Z,984.23
2019-01-28T03:37:53.635Z,984.22
2019-01-28T03:39:03.335Z,984.3
2019-01-28T03:40:13.284Z,984.25
2019-01-28T03:41:23.057Z,984.19
2019-01-28T03:42:33.017Z,984.32
2019-01-28T03:43:42.714Z,984.2
2019-01-28T03:44:52.156Z,984.2
2019-01-28T03:46:01.868Z,984.24
2019-01-28T03:47:12.522Z,984.19
2019-01-28T03:48:22.461Z,984.31
2019-01-28T03:49:32.397Z,984.34
2019-01-28T03:50:42.370Z,984.21
2019-01-28T03:51:52.064Z,984.4
2019-01-28T03:53:01.281Z,984.31
2019-01-28T03:54:10.721Z,984.28
2019-01-28T03:55:20.176Z,984.37
2019-01-28T03:56:30.127Z,984.47
2019-01-28T03:57:40.077Z,984.41
2019-01-28T03:58:49.529Z,984.46
2019-01-28T03:59:59.470Z,984.47
2019-01-28T04:01:09.410Z,984.52
2019-01-28T04:02:19.352Z,984.47
2019-01-28T04:03:29.054Z,984.41
2019-01-28T04:04:38.754Z,984.45
2019-01-28T04:05:48.465Z,984.55
2019-01-28T04:06:58.159Z,984.53
2019-01-28T04:08:07.889Z,984.53
2019-01-28T04:09:17.834Z,984.53
2019-01-28T04:10:27.772Z,984.58
2019-01-28T04:11:37.471Z,984.59
2019-01-28T04:12:47.440Z,984.53
2019-01-28T04:13:57.130Z,984.61
2019-01-28T04:15:07.080Z,984.57
2019-01-28T04:16:17.027Z,984.59
2019-01-28T04:17:26.721Z,984.63
2019-01-28T04:18:36.422Z,984.69
2019-01-28T04:19:46.369Z,984.74
2019-01-28T04:20:56.340Z,984.7
2019-01-28T04:22:06.311Z,984.74
2019-01-28T04:23:15.752Z,984.76
2019-01-28T04:24:25.206Z,984.78
2019-01-28T04:25:34.713Z,984.77
2019-01-28T04:26:44.412Z,984.78
2019-01-28T04:27:54.100Z,984.85
2019-01-28T04:29:04.064Z,984.94
2019-01-28T04:30:13.750Z,984.86
2019-01-28T04:31:23.692Z,984.92
2019-01-28T04:32:33.640Z,984.9
2019-01-28T04:33:43.072Z,984.96
2019-01-28T04:34:52.495Z,984.96
2019-01-28T04:36:02.470Z,984.93
2019-01-28T04:37:12.424Z,985
2019-01-28T04:38:22.380Z,984.96
2019-01-28T04:39:32.322Z,985.01
2019-01-28T04:40:41.759Z,985.03
2019-01-28T04:41:51.702Z,984.99
2019-01-28T04:43:01.640Z,985.04
2019-01-28T04:44:11.579Z,985.07
2019-01-28T04:45:23.269Z,985.12
2019-01-28T04:46:33.233Z,985.19
2019-01-28T04:47:42.925Z,985.09
2019-01-28T04:48:52.872Z,985.06
2019-01-28T04:50:02.810Z,985.14
2019-01-28T04:51:12.745Z,985.15
2019-01-28T04:52:22.493Z,985.18
2019-01-28T04:53:32.193Z,985.25
2019-01-28T04:54:42.333Z,985.19
2019-01-28T04:55:52.272Z,985.19
2019-01-28T04:57:02.218Z,985.24
2019-01-28T04:58:11.656Z,985.24
2019-01-28T04:59:21.339Z,985.24
2019-01-28T05:00:31.287Z,985.27
2019-01-28T05:01:41.238Z,985.29
2019-01-28T05:02:50.685Z,985.24
2019-01-28T05:04:00.367Z,985.24
2019-01-28T05:05:10.080Z,985.31
2019-01-28T05:06:20.038Z,985.28
2019-01-28T05:07:29.728Z,985.3
2019-01-28T05:08:39.159Z,985.25
2019-01-28T05:09:49.092Z,985.22
2019-01-28T05:10:59.093Z,985.22
2019-01-28T05:12:09.038Z,985.23
2019-01-28T05:13:18.740Z,985.22
2019-01-28T05:14:28.413Z,985.26
2019-01-28T05:15:38.116Z,985.28
2019-01-28T05:16:47.577Z,985.28
2019-01-28T05:17:57.264Z,985.33
2019-01-28T05:19:07.205Z,985.37
2019-01-28T05:20:17.153Z,985.39
2019-01-28T05:21:27.109Z,985.37
2019-01-28T05:22:37.082Z,985.34
2019-01-28T05:23:47.027Z,985.3
2019-01-28T05:24:56.960Z,985.31
2019-01-28T05:26:06.936Z,985.33
2019-01-28T05:27:16.519Z,985.36
2019-01-28T05:28:26.448Z,985.33
2019-01-28T05:29:35.891Z,985.28
2019-01-28T05:30:45.835Z,985.3
2019-01-28T05:31:55.760Z,985.31
2019-01-28T05:33:05.710Z,985.37
2019-01-28T05:34:16.368Z,985.31
2019-01-28T05:35:25.831Z,985.36
2019-01-28T05:36:35.763Z,985.31
2019-01-28T05:37:45.452Z,985.4
2019-01-28T05:38:55.551Z,985.36
2019-01-28T05:40:05.478Z,985.37
2019-01-28T05:41:15.412Z,985.37
2019-01-28T05:42:25.349Z,985.35
2019-01-28T05:43:35.291Z,985.35
2019-01-28T05:44:45.049Z,985.38
2019-01-28T05:45:55.415Z,985.36
2019-01-28T05:47:05.129Z,985.32
2019-01-28T05:48:15.072Z,985.34
2019-01-28T05:49:24.752Z,985.36
2019-01-28T05:50:34.688Z,985.35
2019-01-28T05:51:44.625Z,985.41
2019-01-28T05:52:54.347Z,985.38
2019-01-28T05:54:04.305Z,985.41
2019-01-28T05:55:14.252Z,985.47
2019-01-28T05:56:23.945Z,985.48
2019-01-28T05:57:33.652Z,985.44
2019-01-28T05:58:43.343Z,985.54
2019-01-28T05:59:53.303Z,985.55
2019-01-28T06:01:03.033Z,985.55
2019-01-28T06:02:12.722Z,985.5
2019-01-28T06:03:22.405Z,985.51
2019-01-28T06:04:32.378Z,985.56
2019-01-28T06:05:42.086Z,985.51
2019-01-28T06:06:52.069Z,985.57
2019-01-28T06:08:01.746Z,985.58
2019-01-28T06:09:13.105Z,985.58
2019-01-28T06:10:23.046Z,985.51
2019-01-28T06:11:32.479Z,985.51
2019-01-28T06:12:42.412Z,985.45
2019-01-28T06:13:51.881Z,985.5
2019-01-28T06:15:01.321Z,985.44
2019-01-28T06:16:11.017Z,985.43
2019-01-28T06:17:20.706Z,985.45
2019-01-28T06:18:30.389Z,985.45
2019-01-28T06:19:40.349Z,985.45
2019-01-28T06:20:49.794Z,985.48
2019-01-28T06:21:59.727Z,985.51
2019-01-28T06:23:09.427Z,985.53
2019-01-28T06:24:19.375Z,985.48
2019-01-28T06:25:29.304Z,985.46
2019-01-28T06:26:38.755Z,985.49
2019-01-28T06:27:48.442Z,985.49
2019-01-28T06:28:58.389Z,985.56
2019-01-28T06:30:08.350Z,985.47
2019-01-28T06:31:18.028Z,985.55
2019-01-28T06:32:27.963Z,985.47
2019-01-28T06:33:37.903Z,985.56
2019-01-28T06:34:47.886Z,985.56
2019-01-28T06:35:57.822Z,985.57
2019-01-28T06:37:07.751Z,985.62
2019-01-28T06:38:17.762Z,985.63
2019-01-28T06:39:27.441Z,985.65
2019-01-28T06:40:37.396Z,985.63
2019-01-28T06:41:47.381Z,985.66
2019-01-28T06:42:57.319Z,985.66
2019-01-28T06:44:07.248Z,985.63
2019-01-28T06:45:16.928Z,985.58
2019-01-28T06:46:26.876Z,985.65
2019-01-28T06:47:36.588Z,985.63
2019-01-28T06:48:54.190Z,985.64
2019-01-28T06:50:03.636Z,985.63
2019-01-28T06:51:13.592Z,985.61
2019-01-28T06:52:23.549Z,985.68
2019-01-28T06:53:33.014Z,985.64
2019-01-28T06:54:42.963Z,985.64
2019-01-28T06:55:52.639Z,985.65
2019-01-28T06:57:02.590Z,985.65
2019-01-28T06:58:12.525Z,985.66
2019-01-28T06:59:21.717Z,985.64
2019-01-28T07:00:31.653Z,985.67
2019-01-28T07:01:41.351Z,985.71
2019-01-28T07:02:53.114Z,985.72
2019-01-28T07:04:03.082Z,985.72
2019-01-28T07:05:12.773Z,985.74
2019-01-28T07:06:22.205Z,985.76
2019-01-28T07:07:32.159Z,985.79
2019-01-28T07:08:41.848Z,985.76
2019-01-28T07:09:51.593Z,985.77
2019-01-28T07:11:01.615Z,985.72
2019-01-28T07:12:11.555Z,985.75
2019-01-28T07:13:21.504Z,985.72
2019-01-28T07:14:31.451Z,985.76
2019-01-28T07:15:41.421Z,985.76
2019-01-28T07:16:51.365Z,985.73
2019-01-28T07:18:01.341Z,985.73
2019-01-28T07:19:10.797Z,985.81
2019-01-28T07:20:20.744Z,985.77
2019-01-28T07:21:30.763Z,985.81
2019-01-28T07:22:40.714Z,985.78
2019-01-28T07:23:50.668Z,985.87
2019-01-28T07:25:00.652Z,985.82
2019-01-28T07:26:10.632Z,985.89
2019-01-28T07:27:20.579Z,985.87
2019-01-28T07:28:30.293Z,985.91
2019-01-28T07:29:40.228Z,985.88
2019-01-28T07:30:50.173Z,985.87
2019-01-28T07:32:00.204Z,985.86
2019-01-28T07:33:09.919Z,985.85
2019-01-28T07:34:19.843Z,985.82
2019-01-28T07:35:29.789Z,985.8
2019-01-28T07:36:39.738Z,985.82
2019-01-28T07:37:49.425Z,985.85
2019-01-28T07:38:59.396Z,985.83
2019-01-28T07:40:10.612Z,985.81
2019-01-28T07:41:20.315Z,985.8
2019-01-28T07:42:30.280Z,985.87
2019-01-28T07:43:40.224Z,985.89
2019-01-28T07:44:49.975Z,985.9
2019-01-28T07:45:59.907Z,985.91
2019-01-28T07:47:09.607Z,985.89
2019-01-28T07:48:19.554Z,985.91
2019-01-28T07:49:28.981Z,985.94
2019-01-28T07:50:38.674Z,985.94
2019-01-28T07:51:48.692Z,985.95
2019-01-28T07:52:58.645Z,985.91
2019-01-28T07:54:08.596Z,985.96
2019-01-28T07:55:18.547Z,985.98
2019-01-28T07:56:28.042Z,985.94
2019-01-28T07:57:38.014Z,985.99
2019-01-28T07:58:47.953Z,985.98
2019-01-28T07:59:57.651Z,986.04
2019-01-28T08:01:07.581Z,986.09
2019-01-28T08:02:17.281Z,986.05
2019-01-28T08:03:27.253Z,986.08
2019-01-28T08:04:36.958Z,986.11
2019-01-28T08:05:46.917Z,986.13
2019-01-28T08:06:59.427Z,986.18
2019-01-28T08:08:09.299Z,986.1
2019-01-28T08:09:18.988Z,986.12
2019-01-28T08:10:28.953Z,986.15
2019-01-28T08:11:39.173Z,986.17
2019-01-28T08:12:48.887Z,986.2
2019-01-28T08:13:58.379Z,986.16
2019-01-28T08:15:08.330Z,986.16
2019-01-28T08:16:18.030Z,986.11
2019-01-28T08:17:28.013Z,986.14
2019-01-28T08:18:37.709Z,986.2
2019-01-28T08:19:47.727Z,986.15
2019-01-28T08:20:57.672Z,986.23
2019-01-28T08:22:07.662Z,986.21
2019-01-28T08:23:17.558Z,986.19
2019-01-28T08:24:27.320Z,986.25
2019-01-28T08:25:37.143Z,986.22
2019-01-28T08:26:47.102Z,986.23
2019-01-28T08:27:57.069Z,986.21
2019-01-28T08:29:07.026Z,986.21
2019-01-28T08:30:17.018Z,986.23
2019-01-28T08:31:27.004Z,986.21
2019-01-28T08:32:36.467Z,986.25
2019-01-28T08:33:46.429Z,986.2
2019-01-28T08:34:56.371Z,986.18
2019-01-28T08:36:06.079Z,986.19
2019-01-28T08:37:15.771Z,986.14
2019-01-28T08:38:25.719Z,986.17
2019-01-28T08:39:35.681Z,986.13
2019-01-28T08:40:45.885Z,986.1
2019-01-28T08:41:55.837Z,986.09
2019-01-28T08:43:05.880Z,986.13
2019-01-28T08:44:17.544Z,986.1
2019-01-28T08:45:27.257Z,986.15
2019-01-28T08:46:37.187Z,986.09
2019-01-28T08:47:46.900Z,986.05
2019-01-28T08:48:57.116Z,986.12
2019-01-28T08:50:07.073Z,986.06
2019-01-28T08:51:17.045Z,986.09
2019-01-28T08:52:27.078Z,986.15
2019-01-28T08:53:36.841Z,986.12
2019-01-28T08:54:46.850Z,986.11
2019-01-28T08:55:56.545Z,986.14
2019-01-28T08:57:06.235Z,986.13
2019-01-28T08:58:16.169Z,986.14
2019-01-28T08:59:26.124Z,986.12
2019-01-28T09:00:36.066Z,986.08
2019-01-28T09:01:45.997Z,986.14
2019-01-28T09:02:55.943Z,986.07
2019-01-28T09:04:05.895Z,986.04
2019-01-28T09:05:15.872Z,986.1
2019-01-28T09:06:27.161Z,986.12
2019-01-28T09:07:37.127Z,986.18
2019-01-28T09:08:47.146Z,986.17
2019-01-28T09:09:57.135Z,986.13
2019-01-28T09:11:06.613Z,986.19
2019-01-28T09:12:16.564Z,986.09
2019-01-28T09:13:26.538Z,986.17
2019-01-28T09:14:36.246Z,986.14
2019-01-28T09:15:45.957Z,986.2
2019-01-28T09:16:55.927Z,986.17
2019-01-28T09:18:05.892Z,986.19
2019-01-28T09:19:15.834Z,986.2
2019-01-28T09:20:25.826Z,986.26
2019-01-28T09:21:35.759Z,986.21
2019-01-28T09:22:45.475Z,986.19
2019-01-28T09:23:55.208Z,986.17
2019-01-28T09:25:04.913Z,986.27
2019-01-28T09:26:15.116Z,986.24
2019-01-28T09:27:25.067Z,986.24
2019-01-28T09:28:35.011Z,986.26
2019-01-28T09:29:44.947Z,986.21
2019-01-28T09:30:54.883Z,986.27
2019-01-28T09:32:04.819Z,986.31
2019-01-28T09:33:14.819Z,986.24
2019-01-28T09:34:24.516Z,986.23
2019-01-28T09:35:34.209Z,986.22
2019-01-28T09:36:44.152Z,986.17
2019-01-28T09:37:54.110Z,986.15
2019-01-28T09:39:03.812Z,986.13
2019-01-28T09:40:13.758Z,986.13
2019-01-28T09:41:23.465Z,986.12
2019-01-28T09:42:38.391Z,986.18
2019-01-28T09:43:48.087Z,986.12
2019-01-28T09:44:58.040Z,986.14
2019-01-28T09:46:07.984Z,986.16
2019-01-28T09:47:17.934Z,986.15
2019-01-28T09:48:34.068Z,986.12
2019-01-28T09:49:44.299Z,986.2
2019-01-28T09:50:54.262Z,986.12
2019-01-28T09:52:04.222Z,986.11
2019-01-28T09:53:14.182Z,986.23
2019-01-28T09:54:23.885Z,986.19
2019-01-28T09:55:33.847Z,986.24
2019-01-28T09:56:43.816Z,986.21
2019-01-28T09:57:53.780Z,986.14
2019-01-28T09:59:03.484Z,986.23
2019-01-28T10:00:13.453Z,986.21
2019-01-28T10:01:23.402Z,986.31
2019-01-28T10:02:33.160Z,986.35
2019-01-28T10:03:43.097Z,986.33
2019-01-28T10:04:53.079Z,986.29
2019-01-28T10:06:02.833Z,986.29
2019-01-28T10:07:12.603Z,986.21
2019-01-28T10:08:22.323Z,986.3
2019-01-28T10:09:32.296Z,986.33
2019-01-28T10:10:42.002Z,986.37
2019-01-28T10:11:51.958Z,986.35
2019-01-28T10:13:01.945Z,986.35
2019-01-28T10:14:11.927Z,986.39
2019-01-28T10:15:21.862Z,986.34
2019-01-28T10:16:36.222Z,986.3
2019-01-28T10:17:45.668Z,986.34
2019-01-28T10:18:56.329Z,986.42
2019-01-28T10:20:05.825Z,986.3
2019-01-28T10:21:15.768Z,986.31
2019-01-28T10:22:25.726Z,986.28
2019-01-28T10:23:35.171Z,986.3
2019-01-28T10:24:44.630Z,986.27
2019-01-28T10:25:57.689Z,986.29
2019-01-28T10:27:07.802Z,986.29
2019-01-28T10:28:17.803Z,986.35
2019-01-28T10:29:27.500Z,986.29
2019-01-28T10:30:37.447Z,986.34
2019-01-28T10:31:47.220Z,986.4
2019-01-28T10:32:57.176Z,986.33
2019-01-28T10:34:13.700Z,986.36
2019-01-28T10:35:23.738Z,986.31
2019-01-28T10:36:34.262Z,986.4
2019-01-28T10:37:44.304Z,986.33
2019-01-28T10:38:54.265Z,986.34
2019-01-28T10:40:03.730Z,986.33
2019-01-28T10:41:14.528Z,986.43
2019-01-28T10:42:24.493Z,986.26
2019-01-28T10:43:34.477Z,986.3
2019-01-28T10:44:44.208Z,986.3
2019-01-28T10:45:54.192Z,986.28
2019-01-28T10:47:03.922Z,986.17
2019-01-28T10:48:13.624Z,986.25
2019-01-28T10:49:23.342Z,986.24
2019-01-28T10:50:33.302Z,986.15
2019-01-28T10:51:43.317Z,986.2
2019-01-28T10:52:53.123Z,986.21
2019-01-28T10:54:03.072Z,986.2
2019-01-28T10:55:13.042Z,986.2
2019-01-28T10:56:22.781Z,986.18
2019-01-28T10:57:32.748Z,986.23
2019-01-28T10:58:42.446Z,986.15
2019-01-28T10:59:52.422Z,986.23
2019-01-28T11:01:02.403Z,986.2
2019-01-28T11:02:12.352Z,986.23
2019-01-28T11:03:22.050Z,986.24
2019-01-28T11:04:31.997Z,986.23
2019-01-28T11:05:41.955Z,986.25
2019-01-28T11:06:51.661Z,986.28
2019-01-28T11:08:01.389Z,986.3
2019-01-28T11:09:11.375Z,986.3
2019-01-28T11:10:21.561Z,986.18
2019-01-28T11:11:31.452Z,986.22
2019-01-28T11:12:43.066Z,986.2
2019-01-28T11:13:53.283Z,986.18
2019-01-28T11:15:03.609Z,986.22
2019-01-28T11:16:13.473Z,986.15
2019-01-28T11:17:23.770Z,986.07
2019-01-28T11:18:33.899Z,986.13
2019-01-28T11:19:43.837Z,986.14
2019-01-28T11:20:54.149Z,986.07
2019-01-28T11:22:04.466Z,986.11
2019-01-28T11:23:14.594Z,986.22
2019-01-28T11:24:24.929Z,986.21
2019-01-28T11:25:34.961Z,986.24
2019-01-28T11:26:45.193Z,986.28
2019-01-28T11:27:55.207Z,986.25
2019-01-28T11:29:05.452Z,986.22
2019-01-28T11:30:15.453Z,986.21
2019-01-28T11:31:25.698Z,986.15
2019-01-28T11:32:35.821Z,986.12
2019-01-28T11:33:46.022Z,986.16
2019-01-28T11:34:56.174Z,986.11
2019-01-28T11:36:06.513Z,986.15
2019-01-28T11:37:16.816Z,986.07
2019-01-28T11:38:27.219Z,986.1
2019-01-28T11:39:37.363Z,986.12
2019-01-28T11:40:47.527Z,986.09
2019-01-28T11:41:57.599Z,986.11
2019-01-28T11:43:07.993Z,986.02
2019-01-28T11:44:18.181Z,986.06
2019-01-28T11:45:28.109Z,986.12
2019-01-28T11:46:38.462Z,986.12
2019-01-28T11:47:49.021Z,986.13
2019-01-28T11:49:05.683Z,986.12
2019-01-28T11:50:16.402Z,986.11
2019-01-28T11:51:26.352Z,986.13
2019-01-28T11:52:36.294Z,986.11
2019-01-28T11:53:45.972Z,986.09
2019-01-28T11:54:55.668Z,986.03
2019-01-28T11:56:05.366Z,986
2019-01-28T11:57:15.083Z,986.07
2019-01-28T11:58:25.056Z,985.99
2019-01-28T11:59:35.004Z,986.06
2019-01-28T12:00:44.948Z,986.02
2019-01-28T12:01:54.910Z,986
2019-01-28T12:03:04.864Z,986.06
2019-01-28T12:04:14.838Z,986.07
2019-01-28T12:05:26.469Z,986.09
2019-01-28T12:06:35.930Z,986.02
2019-01-28T12:07:45.650Z,986.07
2019-01-28T12:08:55.098Z,986.06
2019-01-28T12:10:04.790Z,986.11
2019-01-28T12:11:14.736Z,986.12
2019-01-28T12:12:24.428Z,986.15
2019-01-28T12:13:33.861Z,986.14
2019-01-28T12:14:43.569Z,986.19
2019-01-28T12:15:53.265Z,986.28
2019-01-28T12:17:03.223Z,986.29
2019-01-28T12:18:12.669Z,986.26
2019-01-28T12:19:22.135Z,986.21
2019-01-28T12:20:31.844Z,986.23
2019-01-28T12:21:41.787Z,986.14
2019-01-28T12:22:51.496Z,986.14
2019-01-28T12:24:01.445Z,986.15
2019-01-28T12:25:11.144Z,986.24
2019-01-28T12:26:20.899Z,986.25
2019-01-28T12:27:31.056Z,986.22
2019-01-28T12:28:41.024Z,986.29
2019-01-28T12:29:50.745Z,986.23
2019-01-28T12:31:00.726Z,986.22
2019-01-28T12:32:10.429Z,986.23
2019-01-28T12:33:20.391Z,986.26
2019-01-28T12:34:30.345Z,986.21
2019-01-28T12:35:44.447Z,986.25
2019-01-28T12:36:54.154Z,986.33
2019-01-28T12:38:04.155Z,986.26
2019-01-28T12:39:14.116Z,986.25
2019-01-28T12:40:24.149Z,986.22
2019-01-28T12:41:34.091Z,986.25
2019-01-28T12:42:43.793Z,986.24
2019-01-28T12:43:55.457Z,986.23
2019-01-28T12:45:05.401Z,986.2
2019-01-28T12:46:15.336Z,986.2
2019-01-28T12:47:25.286Z,986.16
2019-01-28T12:48:34.741Z,986.08
2019-01-28T12:49:43.934Z,986.21
2019-01-28T12:50:53.650Z,986.25
2019-01-28T12:52:03.640Z,986.26
2019-01-28T12:53:13.700Z,986.17
2019-01-28T12:54:23.462Z,986.2
2019-01-28T12:55:33.982Z,986.16
2019-01-28T12:56:44.052Z,986.13
2019-01-28T12:57:53.761Z,986.13
2019-01-28T12:59:08.907Z,986.12
2019-01-28T13:00:19.085Z,986.18
2019-01-28T13:01:29.041Z,986.18
2019-01-28T13:02:38.744Z,986.21
2019-01-28T13:03:48.685Z,986.16
2019-01-28T13:04:58.385Z,986.18
2019-01-28T13:06:08.327Z,986.21
2019-01-28T13:07:18.272Z,986.21
2019-01-28T13:08:28.236Z,986.15
2019-01-28T13:09:37.959Z,986.12
2019-01-28T13:10:47.404Z,986.09
2019-01-28T13:11:56.867Z,986.12
2019-01-28T13:13:06.597Z,986.16
2019-01-28T13:14:16.353Z,986.24
2019-01-28T13:15:26.059Z,986.06
2019-01-28T13:16:36.044Z,986.09
2019-01-28T13:17:45.746Z,986.1
2019-01-28T13:18:55.184Z,986.16
2019-01-28T13:20:05.138Z,986.13
2019-01-28T13:21:14.838Z,986.14
2019-01-28T13:22:24.818Z,986.14
2019-01-28T13:23:34.759Z,986.18
2019-01-28T13:24:45.866Z,986.16
2019-01-28T13:25:55.557Z,986.13
2019-01-28T13:27:05.521Z,986.17
2019-01-28T13:28:15.216Z,986.19
2019-01-28T13:29:24.916Z,986.13
2019-01-28T13:30:34.973Z,986.16
2019-01-28T13:31:44.951Z,986.1
2019-01-28T13:32:54.909Z,986.11
2019-01-28T13:34:04.625Z,986.14
2019-01-28T13:35:14.595Z,986.08
2019-01-28T13:36:24.289Z,986.1
2019-01-28T13:37:34.005Z,986.12
2019-01-28T13:38:43.987Z,986.12
2019-01-28T13:39:53.952Z,986.11
2019-01-28T13:41:03.932Z,986.13
2019-01-28T13:42:13.660Z,986.16
2019-01-28T13:43:23.616Z,985.98
2019-01-28T13:44:33.320Z,986.09
2019-01-28T13:45:43.270Z,986.14
2019-01-28T13:46:53.226Z,986.16
2019-01-28T13:48:03.188Z,986.15
2019-01-28T13:49:13.143Z,986.15
2019-01-28T13:50:22.329Z,986.13
2019-01-28T13:51:32.526Z,986.14
2019-01-28T13:52:42.251Z,986.2
2019-01-28T13:53:51.963Z,986.22
2019-01-28T13:55:01.924Z,986.18
2019-01-28T13:56:11.877Z,986.16
2019-01-28T13:57:21.837Z,986.19
2019-01-28T13:58:31.545Z,986.14
2019-01-28T13:59:41.489Z,986.16
2019-01-28T14:00:51.438Z,986.1
2019-01-28T14:02:01.405Z,986.14
2019-01-28T14:03:11.109Z,986.17
2019-01-28T14:04:21.063Z,986.17
2019-01-28T14:05:30.741Z,986.16
2019-01-28T14:06:40.819Z,986.16
2019-01-28T14:07:50.501Z,986.15
2019-01-28T14:09:00.209Z,986.14
2019-01-28T14:10:09.911Z,986.15
2019-01-28T14:11:19.865Z,986.14
2019-01-28T14:12:29.811Z,986.18
2019-01-28T14:13:39.763Z,986.17
2019-01-28T14:14:49.719Z,986.22
2019-01-28T14:15:59.687Z,986.13
2019-01-28T14:17:09.117Z,986.19
2019-01-28T14:18:19.066Z,986.24
2019-01-28T14:19:29.258Z,986.17
2019-01-28T14:20:46.671Z,986.21
2019-01-28T14:22:01.048Z,986.24
2019-01-28T14:23:11.000Z,986.23
2019-01-28T14:24:20.703Z,986.23
2019-01-28T14:25:30.671Z,986.23
2019-01-28T14:26:40.647Z,986.23
2019-01-28T14:27:50.353Z,986.22
2019-01-28T14:29:00.312Z,986.19
2019-01-28T14:30:10.279Z,986.2
2019-01-28T14:31:20.245Z,986.2
2019-01-28T14:32:30.175Z,986.23
2019-01-28T14:33:39.622Z,986.22
2019-01-28T14:34:49.545Z,986.19
2019-01-28T14:35:58.934Z,986.2